createdAt,value
2023-03-05T00:01:58.332Z,96468.19
2023-03-05T00:04:25.563Z,96520.88
2023-03-05T00:06:52.195Z,96512.53
2023-03-05T00:09:18.857Z,96518.94
2023-03-05T00:11:45.463Z,96522.34
2023-03-05T00:14:12.228Z,96521.44
2023-03-05T00:16:39.621Z,96525.53
2023-03-05T00:19:07.484Z,96456.66
2023-03-05T00:21:39.884Z,96512.53
2023-03-05T00:24:17.250Z,96494.03
2023-03-05T00:26:45.134Z,96513.69
2023-03-05T00:29:16.100Z,96508.28
2023-03-05T00:31:44.375Z,96439.78
2023-03-05T00:34:16.099Z,96419.59
2023-03-05T00:36:46.144Z,96465.38
2023-03-05T00:39:13.341Z,96452.38
2023-03-05T00:41:40.392Z,96414.22
2023-03-05T00:44:07.401Z,96485.56
2023-03-05T00:46:35.188Z,96432.34
2023-03-05T00:49:01.915Z,96498.13
2023-03-05T00:51:28.683Z,96448.81
2023-03-05T00:53:55.566Z,96504.19
2023-03-05T00:56:22.319Z,96471.66
2023-03-05T00:58:49.050Z,96498.03
2023-03-05T01:01:16.348Z,96422.78
2023-03-05T01:03:43.199Z,96486.59
2023-03-05T01:06:13.346Z,96481.69
2023-03-05T01:08:39.971Z,96480.53
2023-03-05T01:11:07.489Z,96451.91
2023-03-05T01:13:34.661Z,96475.88
2023-03-05T01:16:02.095Z,96477.38
2023-03-05T01:18:28.733Z,96436.53
2023-03-05T01:20:55.581Z,96322.16
2023-03-05T01:23:22.239Z,96492.81
2023-03-05T01:25:57.332Z,96363.44
2023-03-05T01:28:24.649Z,96455.25
2023-03-05T01:30:51.420Z,96330.13
2023-03-05T01:33:18.334Z,96432.69
2023-03-05T01:35:49.562Z,96463.06
2023-03-05T01:38:16.924Z,96442.97
2023-03-05T01:40:44.620Z,96424.03
2023-03-05T01:43:11.358Z,96456.25
2023-03-05T01:45:38.858Z,96460.81
2023-03-05T01:48:05.593Z,96458.22
2023-03-05T01:50:33.364Z,96465.19
2023-03-05T01:53:04.218Z,96461.03
2023-03-05T01:55:33.093Z,96447.66
2023-03-05T01:58:08.167Z,96460.13
2023-03-05T02:00:39.741Z,96377.81
2023-03-05T02:03:09.698Z,96464.94
2023-03-05T02:05:38.173Z,96454.66
2023-03-05T02:08:10.605Z,96460.03
2023-03-05T02:10:49.876Z,96460.03
2023-03-05T02:13:26.563Z,96476.69
2023-03-05T02:15:55.159Z,96418.00
2023-03-05T02:18:22.670Z,96462.78
2023-03-05T02:20:56.440Z,96451.72
2023-03-05T02:23:29.321Z,96448.91
2023-03-05T02:25:56.190Z,96462.06
2023-03-05T02:28:25.845Z,96463.25
2023-03-05T02:30:52.524Z,96456.28
2023-03-05T02:33:19.871Z,96463.97
2023-03-05T02:35:46.661Z,96454.84
2023-03-05T02:38:15.954Z,96466.97
2023-03-05T02:40:43.158Z,96389.75
2023-03-05T02:43:10.609Z,96483.13
2023-03-05T02:45:37.542Z,96477.91
2023-03-05T02:48:04.391Z,96467.63
2023-03-05T02:50:32.203Z,96454.03
2023-03-05T02:52:59.049Z,96437.44
2023-03-05T02:55:25.737Z,96438.09
2023-03-05T02:57:52.284Z,96450.88
2023-03-05T03:00:19.136Z,96470.09
2023-03-05T03:02:45.782Z,96469.16
2023-03-05T03:05:12.475Z,96474.09
2023-03-05T03:07:39.042Z,96397.56
2023-03-05T03:10:06.307Z,96423.16
2023-03-05T03:12:37.597Z,96469.56
2023-03-05T03:15:04.650Z,96473.41
2023-03-05T03:17:31.257Z,96469.81
2023-03-05T03:19:57.872Z,96413.03
2023-03-05T03:22:24.478Z,96476.91
2023-03-05T03:24:51.182Z,96468.34
2023-03-05T03:27:17.768Z,96445.81
2023-03-05T03:29:44.409Z,96461.88
2023-03-05T03:32:11.120Z,96464.59
2023-03-05T03:34:37.776Z,96469.41
2023-03-05T03:37:04.434Z,96412.50
2023-03-05T03:39:31.046Z,96459.16
2023-03-05T03:41:57.738Z,96462.91
2023-03-05T03:44:24.731Z,96456.75
2023-03-05T03:46:51.766Z,96471.03
2023-03-05T03:49:25.012Z,96440.91
2023-03-05T03:51:52.447Z,96457.69
2023-03-05T03:54:19.581Z,96449.53
2023-03-05T03:56:46.786Z,96418.50
2023-03-05T03:59:14.431Z,96352.28
2023-03-05T04:01:41.515Z,96462.78
2023-03-05T04:04:08.935Z,96449.28
2023-03-05T04:06:35.760Z,96457.69
2023-03-05T04:09:02.353Z,96464.22
2023-03-05T04:11:29.015Z,96454.50
2023-03-05T04:13:55.652Z,96460.59
2023-03-05T04:16:22.634Z,96467.94
2023-03-05T04:18:49.329Z,96414.44
2023-03-05T04:21:15.912Z,96463.56
2023-03-05T04:23:42.463Z,96461.28
2023-03-05T04:26:09.182Z,96470.34
2023-03-05T04:28:36.266Z,96401.63
2023-03-05T04:31:03.526Z,96457.81
2023-03-05T04:33:30.171Z,96409.44
2023-03-05T04:35:56.824Z,96410.78
2023-03-05T04:38:23.542Z,96461.56
2023-03-05T04:40:50.215Z,96365.59
2023-03-05T04:43:16.842Z,96332.53
2023-03-05T04:45:43.899Z,96455.16
2023-03-05T04:48:11.857Z,96453.41
2023-03-05T04:50:38.941Z,96453.16
2023-03-05T04:53:05.755Z,96453.41
2023-03-05T04:55:32.387Z,96462.78
2023-03-05T04:57:59.142Z,96455.22
2023-03-05T05:00:25.994Z,96466.06
2023-03-05T05:02:52.753Z,96456.28
2023-03-05T05:05:25.592Z,96465.38
2023-03-05T05:07:56.763Z,96445.38
2023-03-05T05:10:24.318Z,96460.38
2023-03-05T05:12:51.235Z,96463.53
2023-03-05T05:15:18.180Z,96413.53
2023-03-05T05:17:44.829Z,96464.38
2023-03-05T05:20:14.323Z,96429.81
2023-03-05T05:22:41.111Z,96445.56
2023-03-05T05:25:08.877Z,96454.25
2023-03-05T05:27:35.479Z,96476.41
2023-03-05T05:30:02.117Z,96448.81
2023-03-05T05:32:28.815Z,96471.84
2023-03-05T05:34:56.980Z,96397.31
2023-03-05T05:37:24.968Z,96477.00
2023-03-05T05:39:51.702Z,96478.97
2023-03-05T05:42:19.804Z,96445.16
2023-03-05T05:44:47.637Z,96463.19
2023-03-05T05:47:15.894Z,96457.22
2023-03-05T05:49:42.588Z,96394.69
2023-03-05T05:52:09.317Z,96462.47
2023-03-05T05:54:36.056Z,96471.59
2023-03-05T05:57:03.263Z,96463.81
2023-03-05T05:59:29.952Z,96454.66
2023-03-05T06:01:56.672Z,96411.00
2023-03-05T06:04:23.303Z,96473.94
2023-03-05T06:06:49.905Z,96469.03
2023-03-05T06:09:16.914Z,96497.47
2023-03-05T06:11:43.499Z,96487.41
2023-03-05T06:14:12.357Z,96495.78
2023-03-05T06:16:39.598Z,96388.13
2023-03-05T06:19:06.508Z,96491.94
2023-03-05T06:21:33.531Z,96496.75
2023-03-05T06:24:00.313Z,96425.75
2023-03-05T06:26:26.984Z,96416.34
2023-03-05T06:28:54.253Z,96477.47
2023-03-05T06:31:25.776Z,96080.75
2023-03-05T06:33:55.599Z,96498.09
2023-03-05T06:36:24.242Z,96433.69
2023-03-05T06:38:53.412Z,96498.00
2023-03-05T06:41:28.991Z,96498.88
2023-03-05T06:43:55.867Z,96509.13
2023-03-05T06:46:30.875Z,96501.88
2023-03-05T06:49:00.180Z,96527.84
2023-03-05T06:51:28.596Z,96496.66
2023-03-05T06:53:56.512Z,96495.00
2023-03-05T06:56:23.651Z,96436.06
2023-03-05T06:58:52.016Z,96498.19
2023-03-05T07:01:19.415Z,96495.22
2023-03-05T07:03:49.868Z,96462.75
2023-03-05T07:06:16.872Z,96430.59
2023-03-05T07:08:44.932Z,96473.38
2023-03-05T07:11:13.599Z,96488.47
2023-03-05T07:13:40.668Z,96483.47
2023-03-05T07:16:09.434Z,96454.88
2023-03-05T07:18:36.417Z,96478.22
2023-03-05T07:21:07.606Z,96482.41
2023-03-05T07:23:36.348Z,96475.50
2023-03-05T07:26:04.890Z,96431.41
2023-03-05T07:28:32.302Z,96415.88
2023-03-05T07:31:05.243Z,96433.31
2023-03-05T07:33:33.583Z,96473.22
2023-03-05T07:36:01.352Z,96466.75
2023-03-05T07:38:28.093Z,96444.47
2023-03-05T07:40:54.667Z,96462.81
2023-03-05T07:43:21.223Z,96440.00
2023-03-05T07:45:47.939Z,96455.78
2023-03-05T07:48:17.913Z,96404.22
2023-03-05T07:50:44.607Z,96435.28
2023-03-05T07:53:11.257Z,96448.19
2023-03-05T07:55:47.551Z,96444.59
2023-03-05T07:58:14.561Z,96401.06
2023-03-05T08:00:41.472Z,96442.81
2023-03-05T08:03:08.237Z,96446.69
2023-03-05T08:05:35.068Z,96464.03
2023-03-05T08:08:01.667Z,96443.75
2023-03-05T08:10:28.217Z,96440.97
2023-03-05T08:12:54.952Z,96400.97
2023-03-05T08:15:21.579Z,96440.72
2023-03-05T08:17:48.251Z,96430.50
2023-03-05T08:20:14.879Z,96445.59
2023-03-05T08:22:41.535Z,96378.25
2023-03-05T08:25:09.861Z,96350.72
2023-03-05T08:27:44.589Z,96421.56
2023-03-05T08:30:14.790Z,96414.72
2023-03-05T08:32:41.460Z,96414.84
2023-03-05T08:35:09.613Z,96406.59
2023-03-05T08:37:37.512Z,96359.06
2023-03-05T08:40:05.218Z,96349.97
2023-03-05T08:42:31.928Z,96347.72
2023-03-05T08:44:58.656Z,96397.06
2023-03-05T08:47:26.702Z,96399.59
2023-03-05T08:49:57.304Z,96325.81
2023-03-05T08:52:25.173Z,96388.53
2023-03-05T08:54:52.007Z,96375.91
2023-03-05T08:57:18.648Z,96373.56
2023-03-05T08:59:45.237Z,96376.75
2023-03-05T09:02:14.710Z,96358.53
2023-03-05T09:04:41.420Z,96366.44
2023-03-05T09:07:08.140Z,96377.16
2023-03-05T09:09:34.877Z,96349.72
2023-03-05T09:12:02.225Z,96375.81
2023-03-05T09:14:29.548Z,96372.59
2023-03-05T09:16:57.327Z,96363.03
2023-03-05T09:19:24.860Z,96368.78
2023-03-05T09:21:51.671Z,96422.19
2023-03-05T09:24:18.348Z,96307.72
2023-03-05T09:26:45.132Z,96310.19
2023-03-05T09:29:12.478Z,96364.00
2023-03-05T09:31:39.657Z,96285.28
2023-03-05T09:34:07.334Z,96361.34
2023-03-05T09:36:34.425Z,96267.88
2023-03-05T09:39:01.060Z,96344.66
2023-03-05T09:41:37.807Z,96359.34
2023-03-05T09:44:23.237Z,96360.44
2023-03-05T09:47:21.302Z,96257.38
2023-03-05T09:49:55.540Z,96362.44
2023-03-05T09:52:28.961Z,96363.78
2023-03-05T09:54:57.932Z,96347.53
2023-03-05T09:57:36.260Z,96346.25
2023-03-05T10:00:21.092Z,96327.28
2023-03-05T10:02:55.770Z,96348.56
2023-03-05T10:05:37.050Z,96341.72
2023-03-05T10:08:05.912Z,96345.44
2023-03-05T10:10:50.477Z,96343.88
2023-03-05T10:13:25.319Z,96341.19
2023-03-05T10:16:10.764Z,96331.19
2023-03-05T10:18:51.384Z,96333.22
2023-03-05T10:21:26.989Z,96325.94
2023-03-05T10:24:51.069Z,96325.91
2023-03-05T10:27:41.620Z,96317.72
2023-03-05T10:30:31.031Z,96309.03
2023-03-05T10:33:43.616Z,96291.69
2023-03-05T10:36:16.075Z,96302.56
2023-03-05T10:39:04.722Z,96315.88
2023-03-05T10:41:49.839Z,96286.91
2023-03-05T10:44:27.786Z,96289.31
2023-03-05T10:46:58.206Z,96232.19
2023-03-05T10:49:36.204Z,96267.47
2023-03-05T10:52:20.115Z,96169.72
2023-03-05T10:54:46.727Z,96215.31
2023-03-05T10:57:22.807Z,96279.50
2023-03-05T10:59:58.073Z,96262.38
2023-03-05T11:02:25.160Z,96213.41
2023-03-05T11:04:53.019Z,96257.41
2023-03-05T11:07:19.560Z,96252.25
2023-03-05T11:10:06.273Z,96246.69
2023-03-05T11:12:38.289Z,96173.78
2023-03-05T11:15:10.649Z,96232.81
2023-03-05T11:17:44.588Z,96233.16
2023-03-05T11:20:32.715Z,96236.25
2023-03-05T11:23:04.224Z,96227.53
2023-03-05T11:25:32.855Z,96229.25
2023-03-05T11:28:01.255Z,96226.09
2023-03-05T11:30:37.828Z,96222.91
2023-03-05T11:33:20.343Z,96217.75
2023-03-05T11:35:49.392Z,96211.00
2023-03-05T11:38:41.056Z,96198.34
2023-03-05T11:41:10.535Z,96199.16
2023-03-05T11:43:41.625Z,96195.19
2023-03-05T11:46:12.364Z,96192.69
2023-03-05T11:48:41.156Z,96168.13
2023-03-05T11:51:19.632Z,96195.88
2023-03-05T11:53:50.865Z,96183.44
2023-03-05T11:56:53.435Z,96187.91
2023-03-05T11:59:28.329Z,96183.91
2023-03-05T12:01:57.696Z,96169.38
2023-03-05T12:04:24.871Z,96192.97
2023-03-05T12:06:57.980Z,96194.56
2023-03-05T12:09:33.939Z,96196.56
2023-03-05T12:12:09.915Z,96200.16
2023-03-05T12:14:49.409Z,96181.19
2023-03-05T12:17:28.692Z,96198.97
2023-03-05T12:20:06.460Z,96147.47
2023-03-05T12:22:42.209Z,96191.72
2023-03-05T12:25:35.501Z,96188.66
2023-03-05T12:28:02.496Z,96179.88
2023-03-05T12:30:49.297Z,96187.38
2023-03-05T12:33:43.248Z,96189.41
2023-03-05T12:36:21.662Z,96189.41
2023-03-05T12:38:54.285Z,96187.50
2023-03-05T12:41:24.934Z,96185.06
2023-03-05T12:44:04.924Z,96189.88
2023-03-05T12:47:12.661Z,96191.13
2023-03-05T12:49:40.386Z,96189.56
2023-03-05T12:52:22.288Z,96198.22
2023-03-05T12:55:00.119Z,96190.28
2023-03-05T12:57:29.506Z,96186.75
2023-03-05T13:00:10.983Z,96190.34
2023-03-05T13:02:44.491Z,96192.34
2023-03-05T13:05:19.704Z,96194.34
2023-03-05T13:07:46.318Z,96194.34
2023-03-05T13:10:28.153Z,96195.16
2023-03-05T13:12:57.365Z,96181.25
2023-03-05T13:15:25.996Z,96190.34
2023-03-05T13:17:57.605Z,96149.16
2023-03-05T13:20:34.117Z,96186.38
2023-03-05T13:23:17.401Z,96176.44
2023-03-05T13:26:24.436Z,96171.69
2023-03-05T13:29:06.348Z,96167.31
2023-03-05T13:31:35.937Z,96158.44
2023-03-05T13:34:17.192Z,96148.94
2023-03-05T13:36:52.278Z,96163.22
2023-03-05T13:39:22.849Z,96024.06
2023-03-05T13:42:01.337Z,96163.16
2023-03-05T13:44:29.575Z,96158.00
2023-03-05T13:47:18.133Z,96138.41
2023-03-05T13:49:47.195Z,96147.69
2023-03-05T13:52:35.299Z,96139.97
2023-03-05T13:55:04.621Z,96138.97
2023-03-05T13:57:40.621Z,96130.47
2023-03-05T14:00:25.000Z,96130.44
2023-03-05T14:02:52.652Z,96119.16
2023-03-05T14:05:19.880Z,96116.47
2023-03-05T14:07:51.242Z,96116.88
2023-03-05T14:10:31.730Z,96063.16
2023-03-05T14:13:00.033Z,96083.59
2023-03-05T14:15:27.901Z,96106.50
2023-03-05T14:18:12.858Z,96113.53
2023-03-05T14:20:41.566Z,96071.75
2023-03-05T14:23:43.535Z,96101.03
2023-03-05T14:26:35.047Z,96095.53
2023-03-05T14:29:07.400Z,96094.34
2023-03-05T14:31:46.956Z,96094.81
2023-03-05T14:34:22.022Z,96090.91
2023-03-05T14:36:51.685Z,96078.28
2023-03-05T14:39:46.523Z,95969.94
2023-03-05T14:42:27.010Z,96078.22
2023-03-05T14:44:55.774Z,96077.44
2023-03-05T14:47:27.274Z,96075.88
2023-03-05T14:49:54.215Z,96075.09
2023-03-05T14:52:23.321Z,96065.66
2023-03-05T14:54:50.273Z,96079.19
2023-03-05T14:57:21.137Z,96072.16
2023-03-05T14:59:47.759Z,95987.22
2023-03-05T15:02:23.623Z,96068.09
2023-03-05T15:04:53.191Z,96061.72
2023-03-05T15:07:25.834Z,96062.63
2023-03-05T15:09:52.837Z,96064.25
2023-03-05T15:12:24.424Z,96074.47
2023-03-05T15:14:55.858Z,96074.47
2023-03-05T15:17:36.987Z,96069.72
2023-03-05T15:20:08.326Z,96070.47
2023-03-05T15:22:35.041Z,96040.56
2023-03-05T15:25:01.736Z,96064.25
2023-03-05T15:27:28.408Z,96050.81
2023-03-05T15:29:55.059Z,96067.41
2023-03-05T15:32:21.675Z,96072.22
2023-03-05T15:34:48.628Z,96062.75
2023-03-05T15:37:15.202Z,95997.59
2023-03-05T15:39:42.399Z,96064.44
2023-03-05T15:42:08.961Z,96069.22
2023-03-05T15:44:35.611Z,96073.19
2023-03-05T15:47:02.215Z,95967.19
2023-03-05T15:49:28.774Z,96048.69
2023-03-05T15:51:56.938Z,96091.44
2023-03-05T15:54:23.535Z,96078.78
2023-03-05T15:56:50.933Z,96066.09
2023-03-05T15:59:17.994Z,96062.53
2023-03-05T16:01:51.553Z,96000.38
2023-03-05T16:04:18.723Z,96030.09
2023-03-05T16:06:48.036Z,96042.31
2023-03-05T16:09:16.246Z,96030.34
2023-03-05T16:11:48.008Z,96089.75
2023-03-05T16:14:17.552Z,96084.25
2023-03-05T16:16:44.499Z,96084.97
2023-03-05T16:19:13.805Z,96088.91
2023-03-05T16:21:40.522Z,96087.16
2023-03-05T16:24:10.341Z,96094.06
2023-03-05T16:26:38.045Z,96086.91
2023-03-05T16:29:08.481Z,96097.41
2023-03-05T16:31:38.273Z,96102.88
2023-03-05T16:34:05.105Z,96080.19
2023-03-05T16:36:35.082Z,96096.75
2023-03-05T16:39:04.586Z,96106.53
2023-03-05T16:41:31.849Z,96107.63
2023-03-05T16:43:59.653Z,96049.75
2023-03-05T16:46:28.237Z,96039.41
2023-03-05T16:48:55.042Z,96111.06
2023-03-05T16:51:22.236Z,96112.84
2023-03-05T16:53:49.268Z,96114.78
2023-03-05T16:56:16.461Z,96080.03
2023-03-05T16:58:43.163Z,96130.00
2023-03-05T17:01:12.545Z,96060.25
2023-03-05T17:03:41.478Z,96111.81
2023-03-05T17:06:10.582Z,96128.34
2023-03-05T17:08:37.161Z,96145.72
2023-03-05T17:11:03.870Z,96143.91
2023-03-05T17:13:30.434Z,96144.22
2023-03-05T17:15:59.905Z,96122.63
2023-03-05T17:18:26.492Z,96142.78
2023-03-05T17:20:53.721Z,96144.19
2023-03-05T17:23:20.646Z,96144.38
2023-03-05T17:25:49.540Z,96146.16
2023-03-05T17:28:16.581Z,96131.03
2023-03-05T17:30:43.229Z,96156.34
2023-03-05T17:33:10.285Z,96156.66
2023-03-05T17:35:39.124Z,96062.53
2023-03-05T17:38:10.908Z,96173.06
2023-03-05T17:40:37.545Z,96151.88
2023-03-05T17:43:04.604Z,96172.66
2023-03-05T17:45:31.544Z,96155.41
2023-03-05T17:47:58.858Z,96166.25
2023-03-05T17:50:25.626Z,96174.16
2023-03-05T17:52:52.606Z,96183.31
2023-03-05T17:55:20.149Z,96170.94
2023-03-05T17:57:47.937Z,96171.63
2023-03-05T18:00:28.112Z,96175.38
2023-03-05T18:02:55.149Z,96179.09
2023-03-05T18:05:24.396Z,96169.59
2023-03-05T18:07:52.025Z,96167.28
2023-03-05T18:10:20.891Z,96089.31
2023-03-05T18:12:48.117Z,96177.16
2023-03-05T18:15:16.960Z,96155.91
2023-03-05T18:17:44.357Z,96183.47
2023-03-05T18:20:36.343Z,96174.56
2023-03-05T18:23:06.020Z,96173.50
2023-03-05T18:25:35.083Z,96182.41
2023-03-05T18:28:03.018Z,96185.03
2023-03-05T18:30:31.428Z,96181.66
2023-03-05T18:32:58.684Z,96190.69
2023-03-05T18:35:25.704Z,96173.13
2023-03-05T18:37:52.339Z,96198.84
2023-03-05T18:40:22.172Z,96190.53
2023-03-05T18:42:50.207Z,96188.78
2023-03-05T18:45:19.265Z,96176.13
2023-03-05T18:47:47.008Z,96109.19
2023-03-05T18:50:18.500Z,96196.19
2023-03-05T18:52:46.140Z,96018.50
2023-03-05T18:55:16.441Z,96189.97
2023-03-05T18:57:43.126Z,96170.78
2023-03-05T19:00:13.610Z,96164.91
2023-03-05T19:02:40.697Z,96206.28
2023-03-05T19:05:07.814Z,96182.66
2023-03-05T19:07:35.256Z,96210.25
2023-03-05T19:10:07.524Z,96212.53
2023-03-05T19:12:51.052Z,96216.19
2023-03-05T19:15:17.583Z,96221.41
2023-03-05T19:17:44.362Z,96227.56
2023-03-05T19:20:12.976Z,96229.59
2023-03-05T19:22:40.320Z,96205.25
2023-03-05T19:25:08.645Z,96227.25
2023-03-05T19:27:35.781Z,96237.25
2023-03-05T19:30:03.865Z,96205.03
2023-03-05T19:32:30.580Z,96227.94
2023-03-05T19:34:58.338Z,96231.34
2023-03-05T19:37:25.657Z,96232.03
2023-03-05T19:39:52.807Z,96239.19
2023-03-05T19:42:19.708Z,96238.47
2023-03-05T19:44:46.544Z,96163.69
2023-03-05T19:47:13.273Z,96219.50
2023-03-05T19:49:40.294Z,96240.84
2023-03-05T19:52:07.491Z,96186.88
2023-03-05T19:54:34.201Z,96228.81
2023-03-05T19:57:01.068Z,96226.22
2023-03-05T19:59:27.831Z,96241.09
2023-03-05T20:01:54.724Z,96226.28
2023-03-05T20:04:23.253Z,96250.72
2023-03-05T20:06:49.960Z,96253.91
2023-03-05T20:09:17.032Z,96221.41
2023-03-05T20:11:43.950Z,96246.81
2023-03-05T20:14:13.174Z,96217.31
2023-03-05T20:16:40.307Z,96210.41
2023-03-05T20:19:10.309Z,96241.56
2023-03-05T20:21:40.658Z,96252.88
2023-03-05T20:24:10.821Z,96265.72
2023-03-05T20:26:39.485Z,96190.63
2023-03-05T20:29:07.091Z,96249.53
2023-03-05T20:31:37.079Z,96178.03
2023-03-05T20:34:11.170Z,96253.59
2023-03-05T20:36:37.968Z,96238.03
2023-03-05T20:39:05.697Z,96263.25
2023-03-05T20:41:34.730Z,96198.22
2023-03-05T20:44:03.327Z,96232.25
2023-03-05T20:46:33.213Z,96110.63
2023-03-05T20:49:02.291Z,96255.50
2023-03-05T20:51:37.883Z,96256.13
2023-03-05T20:54:11.191Z,96156.22
2023-03-05T20:56:38.284Z,96249.59
2023-03-05T20:59:08.974Z,96254.06
2023-03-05T21:01:38.570Z,96252.28
2023-03-05T21:04:05.777Z,96242.94
2023-03-05T21:06:33.226Z,96233.22
2023-03-05T21:09:00.319Z,96211.03
2023-03-05T21:11:27.273Z,96247.53
2023-03-05T21:13:54.158Z,96250.97
2023-03-05T21:16:23.479Z,96255.50
2023-03-05T21:18:51.250Z,96262.38
2023-03-05T21:21:18.364Z,96251.53
2023-03-05T21:23:45.151Z,96247.19
2023-03-05T21:26:13.280Z,96246.19
2023-03-05T21:28:40.941Z,96241.41
2023-03-05T21:31:09.968Z,96212.06
2023-03-05T21:33:37.490Z,96242.03
2023-03-05T21:36:04.661Z,96249.25
2023-03-05T21:38:34.019Z,96238.91
2023-03-05T21:41:01.779Z,96243.75
2023-03-05T21:43:28.787Z,96124.38
2023-03-05T21:45:57.211Z,96242.75
2023-03-05T21:48:24.829Z,96258.91
2023-03-05T21:50:52.405Z,96235.19
2023-03-05T21:53:20.031Z,96250.09
2023-03-05T21:56:02.803Z,96244.88
2023-03-05T21:58:33.760Z,96252.81
2023-03-05T22:01:00.844Z,96247.31
2023-03-05T22:03:28.080Z,96245.03
2023-03-05T22:05:55.125Z,96253.84
2023-03-05T22:08:22.919Z,96234.13
2023-03-05T22:10:49.737Z,96250.81
2023-03-05T22:13:17.911Z,96253.28
2023-03-05T22:15:47.216Z,96247.78
2023-03-05T22:18:15.877Z,96258.63
2023-03-05T22:20:43.073Z,96249.06
2023-03-05T22:23:10.063Z,96249.00
2023-03-05T22:25:37.275Z,96249.09
2023-03-05T22:28:04.298Z,96176.38
2023-03-05T22:30:32.182Z,96218.47
2023-03-05T22:33:00.896Z,96217.44
2023-03-05T22:35:28.692Z,96250.00
2023-03-05T22:37:55.335Z,96242.38
2023-03-05T22:40:22.588Z,96199.00
2023-03-05T22:42:49.350Z,96257.31
2023-03-05T22:45:18.227Z,96182.38
2023-03-05T22:47:50.247Z,96266.34
2023-03-05T22:50:18.134Z,96250.25
2023-03-05T22:52:44.829Z,96234.06
2023-03-05T22:55:14.022Z,96251.13
2023-03-05T22:57:41.041Z,96252.28
2023-03-05T23:00:14.381Z,96246.25
2023-03-05T23:02:41.597Z,96254.22
2023-03-05T23:05:09.368Z,96263.66
2023-03-05T23:07:38.534Z,96188.28
2023-03-05T23:10:12.331Z,96257.28
2023-03-05T23:12:44.018Z,96218.28
2023-03-05T23:15:14.717Z,96242.50
2023-03-05T23:17:41.587Z,96224.03
2023-03-05T23:20:11.670Z,96267.75
2023-03-05T23:22:40.034Z,96283.19
2023-03-05T23:25:07.272Z,96274.19
2023-03-05T23:27:34.209Z,96256.69
2023-03-05T23:30:17.369Z,96191.72
2023-03-05T23:32:45.082Z,96272.03
2023-03-05T23:35:14.148Z,96277.59
2023-03-05T23:37:41.333Z,96291.97
2023-03-05T23:40:14.280Z,96274.19
2023-03-05T23:42:41.586Z,96254.25
2023-03-05T23:45:10.436Z,96261.44
2023-03-05T23:47:37.379Z,96286.97
2023-03-05T23:50:12.638Z,96284.50
2023-03-05T23:52:40.558Z,96284.03
2023-03-05T23:55:07.853Z,96247.13
2023-03-05T23:57:35.272Z,96225.69
